sensor_id;sensor_type;location;lat;lon;timestamp;P1;durP1;ratioP1;P2;durP2;ratioP2
36233;SDS011;43467;50.890;5.982;2023-05-01T00:01:42;5.63;;;2.67;;
36233;SDS011;43467;50.890;5.982;2023-05-01T00:04:08;4.90;;;2.80;;
36233;SDS011;43467;50.890;5.982;2023-05-01T00:06:33;4.72;;;2.80;;
36233;SDS011;43467;50.890;5.982;2023-05-01T00:08:58;5.40;;;2.88;;
36233;SDS011;43467;50.890;5.982;2023-05-01T00:11:24;12.23;;;2.90;;
36233;SDS011;43467;50.890;5.982;2023-05-01T00:13:50;7.75;;;2.80;;
36233;SDS011;43467;50.890;5.982;2023-05-01T00:16:15;6.85;;;2.50;;
36233;SDS011;43467;50.890;5.982;2023-05-01T00:18:41;7.60;;;2.60;;
36233;SDS011;43467;50.890;5.982;2023-05-01T00:21:07;10.88;;;3.13;;
36233;SDS011;43467;50.890;5.982;2023-05-01T00:23:33;5.18;;;2.97;;
36233;SDS011;43467;50.890;5.982;2023-05-01T00:25:58;8.02;;;3.47;;
36233;SDS011;43467;50.890;5.982;2023-05-01T00:28:23;6.15;;;3.30;;
36233;SDS011;43467;50.890;5.982;2023-05-01T00:30:49;7.78;;;3.35;;
36233;SDS011;43467;50.890;5.982;2023-05-01T00:33:15;7.50;;;2.92;;
36233;SDS011;43467;50.890;5.982;2023-05-01T00:35:44;5.97;;;2.88;;
36233;SDS011;43467;50.890;5.982;2023-05-01T00:38:10;6.93;;;2.92;;
36233;SDS011;43467;50.890;5.982;2023-05-01T00:40:44;5.57;;;2.58;;
36233;SDS011;43467;50.890;5.982;2023-05-01T00:43:11;6.22;;;3.08;;
36233;SDS011;43467;50.890;5.982;2023-05-01T00:45:37;8.43;;;3.30;;
36233;SDS011;43467;50.890;5.982;2023-05-01T00:48:03;7.03;;;2.95;;
36233;SDS011;43467;50.890;5.982;2023-05-01T00:50:30;8.98;;;2.83;;
36233;SDS011;43467;50.890;5.982;2023-05-01T00:52:56;4.80;;;3.20;;
36233;SDS011;43467;50.890;5.982;2023-05-01T00:55:22;5.32;;;3.00;;
36233;SDS011;43467;50.890;5.982;2023-05-01T00:57:48;5.20;;;3.00;;
36233;SDS011;43467;50.890;5.982;2023-05-01T01:00:14;4.18;;;2.53;;
36233;SDS011;43467;50.890;5.982;2023-05-01T01:02:40;5.15;;;2.97;;
36233;SDS011;43467;50.890;5.982;2023-05-01T01:05:06;10.10;;;3.17;;
36233;SDS011;43467;50.890;5.982;2023-05-01T01:16:20;7.28;;;3.42;;
36233;SDS011;43467;50.890;5.982;2023-05-01T01:18:55;8.98;;;3.10;;
36233;SDS011;43467;50.890;5.982;2023-05-01T01:21:37;5.13;;;3.25;;
36233;SDS011;43467;50.890;5.982;2023-05-01T01:32:49;6.75;;;3.00;;
36233;SDS011;43467;50.890;5.982;2023-05-01T01:35:33;6.18;;;2.90;;
36233;SDS011;43467;50.890;5.982;2023-05-01T01:38:06;5.07;;;2.92;;
36233;SDS011;43467;50.890;5.982;2023-05-01T01:40:42;4.43;;;3.00;;
36233;SDS011;43467;50.890;5.982;2023-05-01T01:43:16;4.10;;;2.63;;
36233;SDS011;43467;50.890;5.982;2023-05-01T01:45:47;5.15;;;3.00;;
36233;SDS011;43467;50.890;5.982;2023-05-01T01:48:21;5.35;;;3.22;;
36233;SDS011;43467;50.890;5.982;2023-05-01T01:50:50;4.90;;;2.70;;
36233;SDS011;43467;50.890;5.982;2023-05-01T01:53:18;5.60;;;2.65;;
36233;SDS011;43467;50.890;5.982;2023-05-01T01:55:46;5.90;;;2.42;;
36233;SDS011;43467;50.890;5.982;2023-05-01T01:58:13;5.35;;;3.03;;
36233;SDS011;43467;50.890;5.982;2023-05-01T02:00:41;5.60;;;3.28;;
36233;SDS011;43467;50.890;5.982;2023-05-01T02:03:09;7.38;;;3.15;;
36233;SDS011;43467;50.890;5.982;2023-05-01T02:05:37;5.90;;;2.78;;
36233;SDS011;43467;50.890;5.982;2023-05-01T02:08:04;4.03;;;2.95;;
36233;SDS011;43467;50.890;5.982;2023-05-01T02:10:31;4.65;;;2.53;;
36233;SDS011;43467;50.890;5.982;2023-05-01T02:12:57;5.68;;;2.60;;
36233;SDS011;43467;50.890;5.982;2023-05-01T02:15:24;5.50;;;3.10;;
36233;SDS011;43467;50.890;5.982;2023-05-01T02:17:51;4.57;;;2.83;;
36233;SDS011;43467;50.890;5.982;2023-05-01T02:20:18;7.63;;;3.15;;
36233;SDS011;43467;50.890;5.982;2023-05-01T02:22:45;4.85;;;2.95;;
36233;SDS011;43467;50.890;5.982;2023-05-01T02:25:12;5.05;;;2.50;;
36233;SDS011;43467;50.890;5.982;2023-05-01T02:27:43;7.47;;;3.17;;
36233;SDS011;43467;50.890;5.982;2023-05-01T02:30:12;6.25;;;3.15;;
36233;SDS011;43467;50.890;5.982;2023-05-01T02:32:38;8.18;;;3.17;;
36233;SDS011;43467;50.890;5.982;2023-05-01T02:35:03;4.28;;;2.60;;
36233;SDS011;43467;50.890;5.982;2023-05-01T02:37:29;4.45;;;2.75;;
36233;SDS011;43467;50.890;5.982;2023-05-01T02:39:55;4.78;;;3.17;;
36233;SDS011;43467;50.890;5.982;2023-05-01T02:42:21;5.47;;;3.08;;
36233;SDS011;43467;50.890;5.982;2023-05-01T02:45:22;6.35;;;3.13;;
36233;SDS011;43467;50.890;5.982;2023-05-01T02:47:45;6.82;;;3.47;;
36233;SDS011;43467;50.890;5.982;2023-05-01T02:50:14;4.55;;;2.97;;
36233;SDS011;43467;50.890;5.982;2023-05-01T02:52:41;5.47;;;3.63;;
36233;SDS011;43467;50.890;5.982;2023-05-01T02:55:08;5.95;;;3.15;;
36233;SDS011;43467;50.890;5.982;2023-05-01T02:57:33;6.13;;;3.20;;
36233;SDS011;43467;50.890;5.982;2023-05-01T02:59:59;4.38;;;3.58;;
36233;SDS011;43467;50.890;5.982;2023-05-01T03:02:24;7.53;;;3.75;;
36233;SDS011;43467;50.890;5.982;2023-05-01T03:04:50;8.43;;;3.63;;
36233;SDS011;43467;50.890;5.982;2023-05-01T03:07:16;7.05;;;3.28;;
36233;SDS011;43467;50.890;5.982;2023-05-01T03:09:41;4.15;;;3.00;;
36233;SDS011;43467;50.890;5.982;2023-05-01T03:12:07;5.82;;;3.75;;
36233;SDS011;43467;50.890;5.982;2023-05-01T03:14:32;5.78;;;3.05;;
36233;SDS011;43467;50.890;5.982;2023-05-01T03:16:57;6.15;;;3.70;;
36233;SDS011;43467;50.890;5.982;2023-05-01T03:19:23;5.68;;;3.42;;
36233;SDS011;43467;50.890;5.982;2023-05-01T03:21:48;5.88;;;3.88;;
36233;SDS011;43467;50.890;5.982;2023-05-01T03:24:13;6.10;;;3.30;;
36233;SDS011;43467;50.890;5.982;2023-05-01T03:26:39;3.60;;;2.70;;
36233;SDS011;43467;50.890;5.982;2023-05-01T03:29:04;7.25;;;3.42;;
36233;SDS011;43467;50.890;5.982;2023-05-01T03:31:30;6.18;;;3.10;;
36233;SDS011;43467;50.890;5.982;2023-05-01T03:33:55;5.32;;;3.03;;
36233;SDS011;43467;50.890;5.982;2023-05-01T03:36:21;3.75;;;3.03;;
36233;SDS011;43467;50.890;5.982;2023-05-01T03:38:46;5.63;;;3.42;;
36233;SDS011;43467;50.890;5.982;2023-05-01T03:41:12;4.97;;;3.40;;
36233;SDS011;43467;50.890;5.982;2023-05-01T03:43:38;5.63;;;3.13;;
36233;SDS011;43467;50.890;5.982;2023-05-01T03:46:03;7.78;;;3.30;;
36233;SDS011;43467;50.890;5.982;2023-05-01T03:48:28;6.63;;;3.28;;
36233;SDS011;43467;50.890;5.982;2023-05-01T03:50:54;5.10;;;3.17;;
36233;SDS011;43467;50.890;5.982;2023-05-01T03:53:20;6.07;;;3.13;;
36233;SDS011;43467;50.890;5.982;2023-05-01T03:55:46;8.35;;;3.63;;
36233;SDS011;43467;50.890;5.982;2023-05-01T03:58:11;5.38;;;3.63;;
36233;SDS011;43467;50.890;5.982;2023-05-01T04:00:37;5.78;;;3.35;;
36233;SDS011;43467;50.890;5.982;2023-05-01T04:03:03;6.93;;;3.97;;
36233;SDS011;43467;50.890;5.982;2023-05-01T04:05:29;5.88;;;3.40;;
36233;SDS011;43467;50.890;5.982;2023-05-01T04:07:54;5.85;;;2.85;;
36233;SDS011;43467;50.890;5.982;2023-05-01T04:10:20;5.40;;;3.13;;
36233;SDS011;43467;50.890;5.982;2023-05-01T04:12:46;6.07;;;3.17;;
36233;SDS011;43467;50.890;5.982;2023-05-01T04:15:11;7.35;;;3.38;;
36233;SDS011;43467;50.890;5.982;2023-05-01T04:17:37;7.38;;;3.53;;
36233;SDS011;43467;50.890;5.982;2023-05-01T04:20:03;4.97;;;3.63;;
36233;SDS011;43467;50.890;5.982;2023-05-01T04:22:30;4.07;;;3.15;;
36233;SDS011;43467;50.890;5.982;2023-05-01T04:24:55;7.93;;;3.33;;
36233;SDS011;43467;50.890;5.982;2023-05-01T04:27:21;5.00;;;2.63;;
36233;SDS011;43467;50.890;5.982;2023-05-01T04:29:46;4.68;;;3.03;;
36233;SDS011;43467;50.890;5.982;2023-05-01T04:32:12;7.47;;;3.70;;
36233;SDS011;43467;50.890;5.982;2023-05-01T04:34:37;4.72;;;3.45;;
36233;SDS011;43467;50.890;5.982;2023-05-01T04:37:03;3.63;;;3.00;;
36233;SDS011;43467;50.890;5.982;2023-05-01T04:39:31;6.30;;;3.42;;
36233;SDS011;43467;50.890;5.982;2023-05-01T04:41:56;7.90;;;3.47;;
36233;SDS011;43467;50.890;5.982;2023-05-01T04:44:21;6.07;;;3.17;;
36233;SDS011;43467;50.890;5.982;2023-05-01T04:46:47;5.38;;;3.70;;
36233;SDS011;43467;50.890;5.982;2023-05-01T04:49:12;8.55;;;4.15;;
36233;SDS011;43467;50.890;5.982;2023-05-01T04:51:38;7.03;;;3.60;;
36233;SDS011;43467;50.890;5.982;2023-05-01T04:54:03;5.13;;;3.58;;
36233;SDS011;43467;50.890;5.982;2023-05-01T04:56:29;6.60;;;3.45;;
36233;SDS011;43467;50.890;5.982;2023-05-01T04:58:55;5.43;;;3.30;;
36233;SDS011;43467;50.890;5.982;2023-05-01T05:01:20;6.57;;;3.38;;
36233;SDS011;43467;50.890;5.982;2023-05-01T05:03:46;5.80;;;2.58;;
36233;SDS011;43467;50.890;5.982;2023-05-01T05:06:12;5.38;;;2.78;;
36233;SDS011;43467;50.890;5.982;2023-05-01T05:08:37;3.35;;;2.45;;
36233;SDS011;43467;50.890;5.982;2023-05-01T05:11:02;3.33;;;2.42;;
36233;SDS011;43467;50.890;5.982;2023-05-01T05:13:28;6.20;;;3.10;;
36233;SDS011;43467;50.890;5.982;2023-05-01T05:15:53;7.43;;;3.13;;
36233;SDS011;43467;50.890;5.982;2023-05-01T05:18:19;3.60;;;2.70;;
36233;SDS011;43467;50.890;5.982;2023-05-01T05:20:45;4.15;;;2.45;;
36233;SDS011;43467;50.890;5.982;2023-05-01T05:23:10;3.80;;;2.38;;
36233;SDS011;43467;50.890;5.982;2023-05-01T05:25:37;4.03;;;2.65;;
36233;SDS011;43467;50.890;5.982;2023-05-01T05:28:02;4.88;;;2.15;;
36233;SDS011;43467;50.890;5.982;2023-05-01T05:30:28;2.95;;;2.35;;
36233;SDS011;43467;50.890;5.982;2023-05-01T05:32:54;4.75;;;3.13;;
36233;SDS011;43467;50.890;5.982;2023-05-01T05:35:19;5.30;;;2.70;;
36233;SDS011;43467;50.890;5.982;2023-05-01T05:37:45;4.07;;;2.20;;
36233;SDS011;43467;50.890;5.982;2023-05-01T05:40:10;5.97;;;2.42;;
36233;SDS011;43467;50.890;5.982;2023-05-01T05:42:36;3.40;;;1.77;;
36233;SDS011;43467;50.890;5.982;2023-05-01T05:45:01;3.90;;;2.00;;
36233;SDS011;43467;50.890;5.982;2023-05-01T05:47:28;3.80;;;2.53;;
36233;SDS011;43467;50.890;5.982;2023-05-01T05:49:53;4.05;;;2.42;;
36233;SDS011;43467;50.890;5.982;2023-05-01T05:52:19;4.10;;;2.58;;
36233;SDS011;43467;50.890;5.982;2023-05-01T05:54:45;4.28;;;2.22;;
36233;SDS011;43467;50.890;5.982;2023-05-01T05:57:10;4.07;;;2.50;;
36233;SDS011;43467;50.890;5.982;2023-05-01T05:59:36;5.90;;;2.60;;
36233;SDS011;43467;50.890;5.982;2023-05-01T06:02:02;7.07;;;2.55;;
36233;SDS011;43467;50.890;5.982;2023-05-01T06:04:27;4.70;;;2.30;;
36233;SDS011;43467;50.890;5.982;2023-05-01T06:06:53;3.92;;;2.13;;
36233;SDS011;43467;50.890;5.982;2023-05-01T06:09:18;5.57;;;2.40;;
36233;SDS011;43467;50.890;5.982;2023-05-01T06:11:43;3.03;;;2.20;;
36233;SDS011;43467;50.890;5.982;2023-05-01T06:14:09;4.72;;;2.58;;
36233;SDS011;43467;50.890;5.982;2023-05-01T06:16:35;3.72;;;2.08;;
36233;SDS011;43467;50.890;5.982;2023-05-01T06:19:00;4.20;;;2.20;;
36233;SDS011;43467;50.890;5.982;2023-05-01T06:21:26;4.95;;;2.40;;
36233;SDS011;43467;50.890;5.982;2023-05-01T06:23:51;5.07;;;2.38;;
36233;SDS011;43467;50.890;5.982;2023-05-01T06:26:17;4.40;;;2.50;;
36233;SDS011;43467;50.890;5.982;2023-05-01T06:28:42;3.55;;;2.63;;
36233;SDS011;43467;50.890;5.982;2023-05-01T06:31:08;6.65;;;2.92;;
36233;SDS011;43467;50.890;5.982;2023-05-01T06:33:33;6.60;;;2.60;;
36233;SDS011;43467;50.890;5.982;2023-05-01T06:35:59;5.38;;;3.10;;
36233;SDS011;43467;50.890;5.982;2023-05-01T06:38:25;5.45;;;2.90;;
36233;SDS011;43467;50.890;5.982;2023-05-01T06:40:51;6.43;;;2.53;;
36233;SDS011;43467;50.890;5.982;2023-05-01T06:43:16;4.00;;;2.22;;
36233;SDS011;43467;50.890;5.982;2023-05-01T06:45:42;4.90;;;2.60;;
36233;SDS011;43467;50.890;5.982;2023-05-01T06:48:07;3.75;;;2.33;;
36233;SDS011;43467;50.890;5.982;2023-05-01T06:50:33;4.55;;;2.25;;
36233;SDS011;43467;50.890;5.982;2023-05-01T06:52:58;3.80;;;2.47;;
36233;SDS011;43467;50.890;5.982;2023-05-01T06:55:25;4.43;;;2.40;;
36233;SDS011;43467;50.890;5.982;2023-05-01T06:57:50;7.32;;;2.22;;
36233;SDS011;43467;50.890;5.982;2023-05-01T07:00:16;2.47;;;2.10;;
36233;SDS011;43467;50.890;5.982;2023-05-01T07:02:43;2.88;;;1.90;;
36233;SDS011;43467;50.890;5.982;2023-05-01T07:05:09;3.53;;;2.22;;
36233;SDS011;43467;50.890;5.982;2023-05-01T07:07:34;9.45;;;2.17;;
36233;SDS011;43467;50.890;5.982;2023-05-01T07:10:00;6.28;;;2.65;;
36233;SDS011;43467;50.890;5.982;2023-05-01T07:12:25;3.60;;;2.50;;
36233;SDS011;43467;50.890;5.982;2023-05-01T07:14:51;3.45;;;2.30;;
36233;SDS011;43467;50.890;5.982;2023-05-01T07:17:17;4.07;;;2.38;;
36233;SDS011;43467;50.890;5.982;2023-05-01T07:19:42;6.50;;;2.92;;
36233;SDS011;43467;50.890;5.982;2023-05-01T07:22:07;3.97;;;2.45;;
36233;SDS011;43467;50.890;5.982;2023-05-01T07:24:33;5.32;;;2.75;;
36233;SDS011;43467;50.890;5.982;2023-05-01T07:26:58;4.15;;;2.33;;
36233;SDS011;43467;50.890;5.982;2023-05-01T07:29:24;6.53;;;2.92;;
36233;SDS011;43467;50.890;5.982;2023-05-01T07:31:49;4.45;;;2.85;;
36233;SDS011;43467;50.890;5.982;2023-05-01T07:34:14;4.68;;;2.88;;
36233;SDS011;43467;50.890;5.982;2023-05-01T07:36:42;3.80;;;2.60;;
36233;SDS011;43467;50.890;5.982;2023-05-01T07:39:07;3.85;;;2.45;;
36233;SDS011;43467;50.890;5.982;2023-05-01T07:41:32;5.97;;;2.97;;
36233;SDS011;43467;50.890;5.982;2023-05-01T07:43:58;4.70;;;2.88;;
36233;SDS011;43467;50.890;5.982;2023-05-01T07:46:23;3.80;;;2.60;;
36233;SDS011;43467;50.890;5.982;2023-05-01T07:48:49;4.10;;;2.65;;
36233;SDS011;43467;50.890;5.982;2023-05-01T07:51:14;4.03;;;2.38;;
36233;SDS011;43467;50.890;5.982;2023-05-01T07:53:41;3.90;;;2.33;;
36233;SDS011;43467;50.890;5.982;2023-05-01T07:56:07;6.10;;;2.90;;
36233;SDS011;43467;50.890;5.982;2023-05-01T07:58:34;5.05;;;2.60;;
36233;SDS011;43467;50.890;5.982;2023-05-01T08:01:00;7.18;;;2.60;;
36233;SDS011;43467;50.890;5.982;2023-05-01T08:03:27;7.10;;;2.70;;
36233;SDS011;43467;50.890;5.982;2023-05-01T08:05:53;6.57;;;3.00;;
36233;SDS011;43467;50.890;5.982;2023-05-01T08:08:19;4.60;;;2.38;;
36233;SDS011;43467;50.890;5.982;2023-05-01T08:10:45;5.40;;;2.78;;
36233;SDS011;43467;50.890;5.982;2023-05-01T08:13:11;5.65;;;3.00;;
36233;SDS011;43467;50.890;5.982;2023-05-01T08:15:36;3.95;;;2.30;;
36233;SDS011;43467;50.890;5.982;2023-05-01T08:18:03;4.40;;;2.60;;
36233;SDS011;43467;50.890;5.982;2023-05-01T08:20:31;4.30;;;2.83;;
36233;SDS011;43467;50.890;5.982;2023-05-01T08:22:57;5.93;;;2.65;;
36233;SDS011;43467;50.890;5.982;2023-05-01T08:25:22;6.47;;;2.85;;
36233;SDS011;43467;50.890;5.982;2023-05-01T08:27:47;4.82;;;2.50;;
36233;SDS011;43467;50.890;5.982;2023-05-01T08:30:13;3.58;;;2.45;;
36233;SDS011;43467;50.890;5.982;2023-05-01T08:32:38;3.17;;;2.35;;
36233;SDS011;43467;50.890;5.982;2023-05-01T08:35:04;4.28;;;2.78;;
36233;SDS011;43467;50.890;5.982;2023-05-01T08:37:30;3.70;;;2.60;;
36233;SDS011;43467;50.890;5.982;2023-05-01T08:39:55;4.38;;;2.85;;
36233;SDS011;43467;50.890;5.982;2023-05-01T08:42:21;6.22;;;3.42;;
36233;SDS011;43467;50.890;5.982;2023-05-01T08:44:46;4.80;;;3.15;;
36233;SDS011;43467;50.890;5.982;2023-05-01T08:47:16;5.97;;;3.45;;
36233;SDS011;43467;50.890;5.982;2023-05-01T08:49:43;4.10;;;3.33;;
36233;SDS011;43467;50.890;5.982;2023-05-01T08:52:10;5.80;;;3.28;;
36233;SDS011;43467;50.890;5.982;2023-05-01T08:54:43;4.57;;;3.55;;
36233;SDS011;43467;50.890;5.982;2023-05-01T08:57:10;6.28;;;3.55;;
36233;SDS011;43467;50.890;5.982;2023-05-01T08:59:36;6.97;;;4.63;;
36233;SDS011;43467;50.890;5.982;2023-05-01T09:02:03;7.38;;;4.65;;
36233;SDS011;43467;50.890;5.982;2023-05-01T09:04:32;5.60;;;3.97;;
36233;SDS011;43467;50.890;5.982;2023-05-01T09:06:59;8.18;;;4.50;;
36233;SDS011;43467;50.890;5.982;2023-05-01T09:09:26;6.13;;;4.53;;
36233;SDS011;43467;50.890;5.982;2023-05-01T09:11:55;7.22;;;4.60;;
36233;SDS011;43467;50.890;5.982;2023-05-01T09:14:44;7.65;;;5.10;;
36233;SDS011;43467;50.890;5.982;2023-05-01T09:17:10;9.63;;;5.85;;
36233;SDS011;43467;50.890;5.982;2023-05-01T09:19:37;8.38;;;5.15;;
36233;SDS011;43467;50.890;5.982;2023-05-01T09:22:02;8.20;;;5.55;;
36233;SDS011;43467;50.890;5.982;2023-05-01T09:24:28;9.25;;;5.55;;
36233;SDS011;43467;50.890;5.982;2023-05-01T09:26:53;8.10;;;5.60;;
36233;SDS011;43467;50.890;5.982;2023-05-01T09:29:54;7.13;;;5.65;;
36233;SDS011;43467;50.890;5.982;2023-05-01T09:34:46;10.32;;;6.35;;
36233;SDS011;43467;50.890;5.982;2023-05-01T09:37:26;11.00;;;6.68;;
36233;SDS011;43467;50.890;5.982;2023-05-01T09:40:09;10.48;;;6.50;;
36233;SDS011;43467;50.890;5.982;2023-05-01T09:42:36;13.63;;;7.10;;
36233;SDS011;43467;50.890;5.982;2023-05-01T09:45:02;13.88;;;7.00;;
36233;SDS011;43467;50.890;5.982;2023-05-01T09:47:30;10.73;;;7.13;;
36233;SDS011;43467;50.890;5.982;2023-05-01T09:49:58;8.98;;;6.53;;
36233;SDS011;43467;50.890;5.982;2023-05-01T09:52:32;10.30;;;6.90;;
36233;SDS011;43467;50.890;5.982;2023-05-01T09:55:31;10.07;;;6.45;;
36233;SDS011;43467;50.890;5.982;2023-05-01T09:57:50;9.13;;;7.55;;
36233;SDS011;43467;50.890;5.982;2023-05-01T10:00:15;14.63;;;8.00;;
36233;SDS011;43467;50.890;5.982;2023-05-01T10:02:43;9.90;;;7.57;;
36233;SDS011;43467;50.890;5.982;2023-05-01T10:05:10;13.68;;;7.60;;
36233;SDS011;43467;50.890;5.982;2023-05-01T10:07:36;15.95;;;8.02;;
36233;SDS011;43467;50.890;5.982;2023-05-01T10:10:17;16.15;;;7.72;;
36233;SDS011;43467;50.890;5.982;2023-05-01T10:12:45;10.25;;;8.13;;
36233;SDS011;43467;50.890;5.982;2023-05-01T10:15:11;10.15;;;7.07;;
36233;SDS011;43467;50.890;5.982;2023-05-01T10:17:37;12.82;;;8.07;;
36233;SDS011;43467;50.890;5.982;2023-05-01T10:20:04;10.73;;;7.45;;
36233;SDS011;43467;50.890;5.982;2023-05-01T10:22:34;12.23;;;7.93;;
36233;SDS011;43467;50.890;5.982;2023-05-01T10:24:59;13.52;;;9.23;;
36233;SDS011;43467;50.890;5.982;2023-05-01T10:27:25;13.15;;;7.85;;
36233;SDS011;43467;50.890;5.982;2023-05-01T10:29:52;10.65;;;7.20;;
36233;SDS011;43467;50.890;5.982;2023-05-01T10:32:18;11.40;;;6.40;;
36233;SDS011;43467;50.890;5.982;2023-05-01T10:34:46;10.18;;;7.05;;
36233;SDS011;43467;50.890;5.982;2023-05-01T10:37:21;7.43;;;5.97;;
36233;SDS011;43467;50.890;5.982;2023-05-01T10:39:52;10.65;;;7.30;;
36233;SDS011;43467;50.890;5.982;2023-05-01T10:42:18;10.80;;;7.35;;
36233;SDS011;43467;50.890;5.982;2023-05-01T10:44:43;11.30;;;7.55;;
36233;SDS011;43467;50.890;5.982;2023-05-01T10:52:28;9.15;;;7.38;;
36233;SDS011;43467;50.890;5.982;2023-05-01T10:55:05;10.95;;;7.80;;
36233;SDS011;43467;50.890;5.982;2023-05-01T10:57:58;12.07;;;7.38;;
36233;SDS011;43467;50.890;5.982;2023-05-01T11:00:23;9.43;;;7.72;;
36233;SDS011;43467;50.890;5.982;2023-05-01T11:02:50;10.57;;;7.50;;
36233;SDS011;43467;50.890;5.982;2023-05-01T11:05:15;14.43;;;7.85;;
36233;SDS011;43467;50.890;5.982;2023-05-01T11:07:41;9.70;;;7.43;;
36233;SDS011;43467;50.890;5.982;2023-05-01T11:10:23;9.95;;;8.25;;
36233;SDS011;43467;50.890;5.982;2023-05-01T11:12:50;13.00;;;8.63;;
36233;SDS011;43467;50.890;5.982;2023-05-01T11:15:26;13.13;;;9.48;;
36233;SDS011;43467;50.890;5.982;2023-05-01T11:17:54;13.63;;;9.25;;
36233;SDS011;43467;50.890;5.982;2023-05-01T11:22:49;11.68;;;8.57;;
36233;SDS011;43467;50.890;5.982;2023-05-01T11:25:20;14.20;;;8.77;;
36233;SDS011;43467;50.890;5.982;2023-05-01T11:27:51;12.45;;;8.82;;
36233;SDS011;43467;50.890;5.982;2023-05-01T11:30:21;12.60;;;8.95;;
36233;SDS011;43467;50.890;5.982;2023-05-01T11:32:46;12.43;;;9.20;;
36233;SDS011;43467;50.890;5.982;2023-05-01T11:35:23;13.77;;;9.82;;
36233;SDS011;43467;50.890;5.982;2023-05-01T11:37:50;9.88;;;8.32;;
36233;SDS011;43467;50.890;5.982;2023-05-01T11:40:20;11.90;;;7.85;;
36233;SDS011;43467;50.890;5.982;2023-05-01T11:42:48;10.15;;;7.38;;
36233;SDS011;43467;50.890;5.982;2023-05-01T11:45:14;8.98;;;7.57;;
36233;SDS011;43467;50.890;5.982;2023-05-01T11:47:39;15.75;;;8.45;;
36233;SDS011;43467;50.890;5.982;2023-05-01T11:50:05;10.48;;;8.07;;
36233;SDS011;43467;50.890;5.982;2023-05-01T11:52:42;12.50;;;8.77;;
36233;SDS011;43467;50.890;5.982;2023-05-01T11:55:08;12.73;;;8.80;;
36233;SDS011;43467;50.890;5.982;2023-05-01T11:57:47;12.50;;;8.82;;
36233;SDS011;43467;50.890;5.982;2023-05-01T12:00:14;11.70;;;9.20;;
36233;SDS011;43467;50.890;5.982;2023-05-01T12:03:02;11.32;;;8.32;;
36233;SDS011;43467;50.890;5.982;2023-05-01T12:05:38;14.18;;;10.50;;
36233;SDS011;43467;50.890;5.982;2023-05-01T12:10:54;12.75;;;9.50;;
36233;SDS011;43467;50.890;5.982;2023-05-01T12:13:21;14.20;;;8.50;;
36233;SDS011;43467;50.890;5.982;2023-05-01T12:15:48;10.50;;;8.00;;
36233;SDS011;43467;50.890;5.982;2023-05-01T12:18:16;10.63;;;7.30;;
36233;SDS011;43467;50.890;5.982;2023-05-01T12:20:43;11.23;;;7.68;;
36233;SDS011;43467;50.890;5.982;2023-05-01T12:23:15;11.63;;;8.25;;
36233;SDS011;43467;50.890;5.982;2023-05-01T12:25:41;13.75;;;7.72;;
36233;SDS011;43467;50.890;5.982;2023-05-01T12:28:09;11.90;;;9.20;;
36233;SDS011;43467;50.890;5.982;2023-05-01T12:30:38;10.40;;;8.52;;
36233;SDS011;43467;50.890;5.982;2023-05-01T12:33:08;11.43;;;8.13;;
36233;SDS011;43467;50.890;5.982;2023-05-01T12:35:35;9.43;;;7.68;;
36233;SDS011;43467;50.890;5.982;2023-05-01T12:38:17;11.75;;;8.60;;
36233;SDS011;43467;50.890;5.982;2023-05-01T12:40:49;10.23;;;8.63;;
36233;SDS011;43467;50.890;5.982;2023-05-01T12:43:19;11.40;;;7.57;;
36233;SDS011;43467;50.890;5.982;2023-05-01T12:45:46;9.93;;;5.28;;
36233;SDS011;43467;50.890;5.982;2023-05-01T12:48:16;11.65;;;7.13;;
36233;SDS011;43467;50.890;5.982;2023-05-01T12:50:43;10.35;;;5.85;;
36233;SDS011;43467;50.890;5.982;2023-05-01T12:53:09;8.90;;;6.68;;
36233;SDS011;43467;50.890;5.982;2023-05-01T12:55:41;13.35;;;7.80;;
36233;SDS011;43467;50.890;5.982;2023-05-01T12:58:09;9.50;;;5.78;;
36233;SDS011;43467;50.890;5.982;2023-05-01T13:00:42;8.30;;;5.43;;
36233;SDS011;43467;50.890;5.982;2023-05-01T13:03:13;7.70;;;4.80;;
36233;SDS011;43467;50.890;5.982;2023-05-01T13:05:54;8.90;;;4.88;;
36233;SDS011;43467;50.890;5.982;2023-05-01T13:08:30;10.60;;;3.85;;
36233;SDS011;43467;50.890;5.982;2023-05-01T13:10:58;6.03;;;2.90;;
36233;SDS011;43467;50.890;5.982;2023-05-01T13:13:29;5.07;;;2.50;;
36233;SDS011;43467;50.890;5.982;2023-05-01T13:16:06;3.22;;;2.30;;
36233;SDS011;43467;50.890;5.982;2023-05-01T13:18:38;3.72;;;2.38;;
36233;SDS011;43467;50.890;5.982;2023-05-01T13:21:08;3.88;;;2.25;;
36233;SDS011;43467;50.890;5.982;2023-05-01T13:23:35;7.18;;;3.00;;
36233;SDS011;43467;50.890;5.982;2023-05-01T13:26:02;4.90;;;2.88;;
36233;SDS011;43467;50.890;5.982;2023-05-01T13:28:29;4.15;;;3.00;;
36233;SDS011;43467;50.890;5.982;2023-05-01T13:30:56;3.65;;;2.80;;
36233;SDS011;43467;50.890;5.982;2023-05-01T13:33:21;4.60;;;2.85;;
36233;SDS011;43467;50.890;5.982;2023-05-01T13:35:46;4.47;;;2.88;;
36233;SDS011;43467;50.890;5.982;2023-05-01T13:38:12;7.18;;;3.33;;
36233;SDS011;43467;50.890;5.982;2023-05-01T13:40:38;6.45;;;3.30;;
36233;SDS011;43467;50.890;5.982;2023-05-01T13:43:04;3.30;;;3.00;;
36233;SDS011;43467;50.890;5.982;2023-05-01T13:45:37;5.45;;;3.25;;
36233;SDS011;43467;50.890;5.982;2023-05-01T13:48:03;6.95;;;3.00;;
36233;SDS011;43467;50.890;5.982;2023-05-01T13:50:29;5.43;;;3.13;;
36233;SDS011;43467;50.890;5.982;2023-05-01T13:52:54;3.15;;;2.85;;
36233;SDS011;43467;50.890;5.982;2023-05-01T13:55:20;5.97;;;3.40;;
36233;SDS011;43467;50.890;5.982;2023-05-01T13:57:45;3.30;;;2.85;;
36233;SDS011;43467;50.890;5.982;2023-05-01T14:00:14;3.00;;;2.63;;
36233;SDS011;43467;50.890;5.982;2023-05-01T14:02:44;3.00;;;2.53;;
36233;SDS011;43467;50.890;5.982;2023-05-01T14:05:12;3.25;;;2.42;;
36233;SDS011;43467;50.890;5.982;2023-05-01T14:07:57;4.70;;;2.97;;
36233;SDS011;43467;50.890;5.982;2023-05-01T14:10:25;3.75;;;2.80;;
36233;SDS011;43467;50.890;5.982;2023-05-01T14:12:53;3.70;;;3.40;;
36233;SDS011;43467;50.890;5.982;2023-05-01T14:15:20;4.60;;;3.42;;
36233;SDS011;43467;50.890;5.982;2023-05-01T14:17:48;4.40;;;3.63;;
36233;SDS011;43467;50.890;5.982;2023-05-01T14:20:13;4.97;;;3.40;;
36233;SDS011;43467;50.890;5.982;2023-05-01T14:22:40;6.35;;;3.85;;
36233;SDS011;43467;50.890;5.982;2023-05-01T14:25:13;3.95;;;3.42;;
36233;SDS011;43467;50.890;5.982;2023-05-01T14:27:41;7.50;;;4.15;;
36233;SDS011;43467;50.890;5.982;2023-05-01T14:30:18;5.45;;;3.90;;
36233;SDS011;43467;50.890;5.982;2023-05-01T14:32:51;9.32;;;4.93;;
36233;SDS011;43467;50.890;5.982;2023-05-01T14:35:17;6.45;;;4.80;;
36233;SDS011;43467;50.890;5.982;2023-05-01T14:37:45;6.35;;;4.80;;
36233;SDS011;43467;50.890;5.982;2023-05-01T14:40:10;7.78;;;5.00;;
36233;SDS011;43467;50.890;5.982;2023-05-01T14:42:40;9.07;;;5.90;;
36233;SDS011;43467;50.890;5.982;2023-05-01T14:45:08;6.78;;;6.00;;
36233;SDS011;43467;50.890;5.982;2023-05-01T14:47:36;7.95;;;5.97;;
36233;SDS011;43467;50.890;5.982;2023-05-01T14:50:04;10.35;;;6.60;;
36233;SDS011;43467;50.890;5.982;2023-05-01T14:52:30;11.50;;;7.57;;
36233;SDS011;43467;50.890;5.982;2023-05-01T14:54:56;10.70;;;8.88;;
36233;SDS011;43467;50.890;5.982;2023-05-01T14:57:21;13.07;;;10.25;;
36233;SDS011;43467;50.890;5.982;2023-05-01T14:59:46;10.30;;;9.30;;
36233;SDS011;43467;50.890;5.982;2023-05-01T15:02:12;9.18;;;8.27;;
36233;SDS011;43467;50.890;5.982;2023-05-01T15:04:37;12.02;;;9.68;;
36233;SDS011;43467;50.890;5.982;2023-05-01T15:07:02;12.88;;;10.90;;
36233;SDS011;43467;50.890;5.982;2023-05-01T15:09:28;15.43;;;13.75;;
36233;SDS011;43467;50.890;5.982;2023-05-01T15:11:53;13.25;;;11.85;;
36233;SDS011;43467;50.890;5.982;2023-05-01T15:14:19;13.25;;;11.85;;
36233;SDS011;43467;50.890;5.982;2023-05-01T15:16:44;14.52;;;10.90;;
36233;SDS011;43467;50.890;5.982;2023-05-01T15:19:09;14.02;;;12.05;;